createdAt,value
2019-05-15T00:01:20.248Z,72.64
2019-05-15T00:03:52.332Z,71.73
2019-05-15T00:06:23.687Z,70.21
2019-05-15T00:08:55.106Z,69.03
2019-05-15T00:11:28.620Z,70.49
2019-05-15T00:13:59.698Z,72.16
2019-05-15T00:16:31.097Z,72.56
2019-05-15T00:19:02.518Z,72.96
2019-05-15T00:21:34.914Z,74.04
2019-05-15T00:24:12.807Z,75.02
2019-05-15T00:26:39.425Z,75.27
2019-05-15T00:29:15.794Z,75.43
2019-05-15T00:31:44.068Z,75.25
2019-05-15T00:34:15.521Z,75.01
2019-05-15T00:36:48.947Z,75.62
2019-05-15T00:39:19.907Z,76.36
2019-05-15T00:41:54.585Z,77.07
2019-05-15T00:44:24.395Z,76.84
2019-05-15T00:46:58.087Z,75.72
2019-05-15T00:49:30.111Z,76.33
2019-05-15T00:52:01.544Z,77.20
2019-05-15T00:54:32.939Z,77.92
2019-05-15T00:57:04.391Z,78.51
2019-05-15T00:59:35.791Z,79.16
2019-05-15T01:02:08.688Z,78.71
2019-05-15T01:04:40.241Z,78.87
2019-05-15T01:07:11.689Z,79.40
2019-05-15T01:09:43.049Z,79.57
2019-05-15T01:12:14.432Z,79.65
2019-05-15T01:14:45.894Z,79.78
2019-05-15T01:17:18.462Z,80.05
2019-05-15T01:19:49.970Z,80.30
2019-05-15T01:22:21.329Z,80.76
2019-05-15T01:24:52.728Z,80.55
2019-05-15T01:27:24.015Z,80.50
2019-05-15T01:29:55.451Z,80.78
2019-05-15T01:32:28.418Z,81.57
2019-05-15T01:34:59.991Z,81.34
2019-05-15T01:37:31.441Z,81.48
2019-05-15T01:40:02.839Z,81.42
2019-05-15T01:42:34.248Z,81.52
2019-05-15T01:45:05.809Z,81.25
2019-05-15T01:47:39.006Z,81.59
2019-05-15T01:50:10.691Z,82.20
2019-05-15T01:52:42.027Z,82.27
2019-05-15T01:55:13.528Z,82.31
2019-05-15T01:57:45.032Z,82.59
2019-05-15T02:00:18.684Z,82.30
2019-05-15T02:02:49.595Z,82.44
2019-05-15T02:05:21.583Z,82.38
2019-05-15T02:07:53.028Z,83.04
2019-05-15T02:10:24.389Z,83.03
2019-05-15T02:12:55.798Z,82.83
2019-05-15T02:15:28.764Z,82.46
2019-05-15T02:18:00.211Z,82.98
2019-05-15T02:20:31.583Z,82.89
2019-05-15T02:23:03.867Z,82.00
2019-05-15T02:25:35.298Z,80.92
2019-05-15T02:28:09.098Z,80.59
2019-05-15T02:30:40.945Z,80.00
2019-05-15T02:33:12.727Z,79.33
2019-05-15T02:35:44.176Z,79.76
2019-05-15T02:38:15.759Z,80.05
2019-05-15T02:40:49.386Z,79.99
2019-05-15T02:43:20.286Z,79.95
2019-05-15T02:45:51.859Z,79.67
2019-05-15T02:48:23.204Z,79.68
2019-05-15T02:50:54.588Z,79.24
2019-05-15T02:53:25.933Z,79.67
2019-05-15T02:56:00.145Z,79.73
2019-05-15T02:58:30.519Z,80.66
2019-05-15T03:01:01.911Z,80.52
2019-05-15T03:03:33.355Z,80.19
2019-05-15T03:06:05.548Z,79.66
2019-05-15T03:08:39.550Z,79.31
2019-05-15T03:11:10.155Z,78.94
2019-05-15T03:13:41.535Z,77.04
2019-05-15T03:16:13.014Z,75.27
2019-05-15T03:18:44.441Z,73.66
2019-05-15T03:21:18.797Z,74.14
2019-05-15T03:23:51.019Z,74.86
2019-05-15T03:26:24.690Z,74.35
2019-05-15T03:28:58.832Z,74.11
2019-05-15T03:31:48.734Z,72.21
2019-05-15T03:34:03.614Z,72.47
2019-05-15T03:36:35.461Z,72.40
2019-05-15T03:39:09.704Z,70.21
2019-05-15T03:41:40.332Z,70.06
2019-05-15T03:44:11.688Z,69.18
2019-05-15T03:46:43.110Z,68.36
2019-05-15T03:49:14.658Z,67.28
2019-05-15T03:51:46.325Z,65.51
2019-05-15T03:54:19.049Z,64.90
2019-05-15T03:56:50.675Z,63.66
2019-05-15T03:59:22.124Z,65.20
2019-05-15T04:01:53.485Z,63.74
2019-05-15T04:04:24.882Z,64.46
2019-05-15T04:06:59.211Z,62.85
2019-05-15T04:09:29.654Z,60.48
2019-05-15T04:12:02.100Z,59.42
2019-05-15T04:14:33.466Z,60.28
2019-05-15T04:17:04.907Z,59.61
2019-05-15T04:19:39.025Z,59.69
2019-05-15T04:22:09.608Z,58.94
2019-05-15T04:24:41.345Z,59.06
2019-05-15T04:27:14.565Z,58.10
2019-05-15T04:29:49.063Z,57.51
2019-05-15T04:32:20.021Z,57.40
2019-05-15T04:34:51.709Z,55.81
2019-05-15T04:37:23.153Z,54.18
2019-05-15T04:39:54.575Z,53.88
2019-05-15T04:42:26.047Z,53.50
2019-05-15T04:44:59.637Z,52.95
2019-05-15T04:47:30.715Z,51.98
2019-05-15T04:50:02.149Z,52.32
2019-05-15T04:52:34.133Z,49.47
2019-05-15T04:55:10.188Z,48.59
2019-05-15T04:57:41.652Z,51.88
2019-05-15T05:00:19.714Z,49.77
2019-05-15T05:02:49.977Z,48.96
2019-05-15T05:05:21.368Z,49.05
2019-05-15T05:07:52.862Z,49.93
2019-05-15T05:10:25.497Z,49.75
2019-05-15T05:12:59.130Z,49.94
2019-05-15T05:15:30.069Z,51.01
2019-05-15T05:18:01.579Z,49.22
2019-05-15T05:20:33.074Z,48.33
2019-05-15T05:23:04.583Z,46.90
2019-05-15T05:25:38.668Z,48.63
2019-05-15T05:28:09.168Z,48.75
2019-05-15T05:30:40.669Z,46.77
2019-05-15T05:33:12.125Z,48.52
2019-05-15T05:35:43.495Z,46.13
2019-05-15T05:38:14.947Z,44.57
2019-05-15T05:40:46.332Z,43.41
2019-05-15T05:43:18.363Z,41.74
2019-05-15T05:45:51.150Z,41.31
2019-05-15T05:48:22.701Z,37.50
2019-05-15T05:50:54.134Z,37.04
2019-05-15T05:53:25.635Z,35.35
2019-05-15T05:55:58.078Z,35.84
2019-05-15T05:58:29.884Z,36.22
2019-05-15T06:01:01.512Z,36.99
2019-05-15T06:03:33.114Z,34.07
2019-05-15T06:06:04.538Z,33.80
2019-05-15T06:08:35.952Z,33.16
2019-05-15T06:11:09.817Z,32.02
2019-05-15T06:13:40.449Z,32.99
2019-05-15T06:16:11.890Z,35.78
2019-05-15T06:18:44.837Z,34.44
2019-05-15T06:21:18.250Z,31.48
2019-05-15T06:23:55.506Z,30.77
2019-05-15T06:26:22.693Z,30.56
2019-05-15T06:28:54.426Z,32.66
2019-05-15T06:31:27.963Z,30.51
2019-05-15T06:34:00.034Z,30.53
2019-05-15T06:36:31.456Z,29.16
2019-05-15T06:39:04.734Z,26.94
2019-05-15T06:41:36.108Z,27.30
2019-05-15T06:44:08.002Z,26.44
2019-05-15T06:46:39.551Z,25.25
2019-05-15T06:49:11.091Z,26.81
2019-05-15T06:51:42.613Z,28.11
2019-05-15T06:54:14.279Z,29.63
2019-05-15T06:56:49.304Z,32.65
2019-05-15T06:59:20.462Z,36.44
2019-05-15T07:01:52.986Z,37.36
2019-05-15T07:04:24.401Z,39.39
2019-05-15T07:06:58.189Z,40.93
2019-05-15T07:09:29.066Z,40.92
2019-05-15T07:12:00.426Z,40.08
2019-05-15T07:14:31.882Z,40.73
2019-05-15T07:17:03.158Z,41.42
2019-05-15T07:19:34.617Z,42.28
2019-05-15T07:22:05.979Z,41.41
2019-05-15T07:24:38.371Z,41.05
2019-05-15T07:27:11.361Z,42.00
2019-05-15T07:29:42.995Z,41.61
2019-05-15T07:32:14.307Z,41.74
2019-05-15T07:34:45.695Z,41.36
2019-05-15T07:37:19.054Z,41.53
2019-05-15T07:39:50.072Z,42.25
2019-05-15T07:42:21.541Z,42.11
2019-05-15T07:44:53.016Z,42.26
2019-05-15T07:47:24.394Z,42.25
2019-05-15T07:49:55.764Z,41.47
2019-05-15T07:52:28.827Z,40.67
2019-05-15T07:55:00.228Z,42.05
2019-05-15T07:57:31.662Z,42.43
2019-05-15T08:00:03.136Z,42.53
2019-05-15T08:02:34.743Z,41.93
2019-05-15T08:05:08.649Z,40.47
2019-05-15T08:07:40.196Z,41.52
2019-05-15T08:10:12.318Z,41.01
2019-05-15T08:12:43.792Z,40.82
2019-05-15T08:15:18.122Z,40.41
2019-05-15T08:18:03.978Z,40.62
2019-05-15T08:20:22.443Z,40.88
2019-05-15T08:22:53.832Z,40.92
2019-05-15T08:25:32.376Z,39.42
2019-05-15T08:27:59.139Z,38.17
2019-05-15T08:30:30.843Z,37.86
2019-05-15T08:33:02.221Z,39.57
2019-05-15T08:35:33.669Z,39.96
2019-05-15T08:38:05.034Z,40.90
2019-05-15T08:40:40.765Z,40.87
2019-05-15T08:43:11.579Z,41.80
2019-05-15T08:45:44.670Z,40.87
2019-05-15T08:48:18.255Z,41.38
2019-05-15T08:50:49.266Z,41.68
2019-05-15T08:53:21.311Z,41.64
2019-05-15T08:55:52.754Z,41.67
2019-05-15T08:58:24.127Z,42.19
2019-05-15T09:00:55.557Z,42.77
2019-05-15T09:03:29.363Z,42.13
2019-05-15T09:06:00.938Z,41.86
2019-05-15T09:08:32.481Z,42.35
2019-05-15T09:11:03.911Z,42.49
2019-05-15T09:13:35.414Z,42.77
2019-05-15T09:16:08.262Z,41.55
2019-05-15T09:18:39.866Z,41.62
2019-05-15T09:21:11.295Z,42.07
2019-05-15T09:23:42.732Z,42.46
2019-05-15T09:26:14.121Z,42.91
2019-05-15T09:28:45.619Z,42.53
2019-05-15T09:31:19.314Z,41.97
2019-05-15T09:33:50.227Z,41.49
2019-05-15T09:36:21.798Z,40.50
2019-05-15T09:38:53.109Z,40.34
2019-05-15T09:41:24.512Z,40.12
2019-05-15T09:43:57.875Z,40.86
2019-05-15T09:46:29.283Z,40.29
2019-05-15T09:49:00.691Z,40.25
2019-05-15T09:51:32.380Z,42.12
2019-05-15T09:54:03.825Z,41.01
2019-05-15T09:56:35.205Z,40.58
2019-05-15T09:59:08.881Z,40.71
2019-05-15T10:01:39.871Z,40.97
2019-05-15T10:04:11.360Z,41.58
2019-05-15T10:06:42.844Z,41.74
2019-05-15T10:09:14.355Z,42.33
2019-05-15T10:11:45.836Z,40.77
2019-05-15T10:14:19.511Z,40.67
2019-05-15T10:16:51.704Z,40.07
2019-05-15T10:19:23.082Z,40.06
2019-05-15T10:21:54.560Z,40.17
2019-05-15T10:24:27.971Z,41.33
2019-05-15T10:26:59.099Z,40.50
2019-05-15T10:29:30.578Z,40.08
2019-05-15T10:32:02.444Z,40.31
2019-05-15T10:34:33.892Z,41.04
2019-05-15T10:37:05.345Z,40.83
2019-05-15T10:39:38.436Z,40.30
2019-05-15T10:42:10.292Z,40.63
2019-05-15T10:44:41.629Z,40.48
2019-05-15T10:47:13.011Z,39.67
2019-05-15T10:49:44.401Z,39.46
2019-05-15T10:52:17.861Z,39.59
2019-05-15T10:54:49.071Z,39.72
2019-05-15T10:57:20.590Z,39.38
2019-05-15T10:59:51.964Z,39.36
2019-05-15T11:02:23.347Z,38.07
2019-05-15T11:04:54.920Z,37.89
2019-05-15T11:07:28.457Z,38.63
2019-05-15T11:09:59.600Z,38.75
2019-05-15T11:12:31.097Z,39.12
2019-05-15T11:15:02.719Z,39.50
2019-05-15T11:17:34.192Z,38.67
2019-05-15T11:20:08.271Z,39.43
2019-05-15T11:22:42.917Z,38.97
2019-05-15T11:25:12.506Z,38.69
2019-05-15T11:27:43.940Z,38.59
2019-05-15T11:30:15.939Z,38.17
2019-05-15T11:32:49.175Z,39.25
2019-05-15T11:35:20.639Z,38.57
2019-05-15T11:37:56.604Z,38.54
2019-05-15T11:40:25.133Z,38.81
2019-05-15T11:42:56.602Z,37.94
2019-05-15T11:45:29.097Z,38.26
2019-05-15T11:48:01.091Z,38.58
2019-05-15T11:50:32.632Z,38.72
2019-05-15T11:53:04.072Z,38.57
2019-05-15T11:55:35.462Z,38.57
2019-05-15T11:58:09.318Z,38.98
2019-05-15T12:00:40.226Z,37.24
2019-05-15T12:03:11.582Z,37.50
2019-05-15T12:05:43.077Z,36.96
2019-05-15T12:08:14.481Z,37.37
2019-05-15T12:10:45.923Z,36.45
2019-05-15T12:13:18.982Z,37.74
2019-05-15T12:15:50.560Z,37.52
2019-05-15T12:18:22.169Z,37.73
2019-05-15T12:20:53.534Z,39.10
2019-05-15T12:23:25.401Z,39.97
2019-05-15T12:25:59.718Z,40.15
2019-05-15T12:28:30.044Z,39.94
2019-05-15T12:31:01.413Z,40.45
2019-05-15T12:33:32.808Z,40.26
2019-05-15T12:36:04.831Z,40.38
2019-05-15T12:38:39.517Z,39.76
2019-05-15T13:01:35.614Z,39.23
2019-05-15T13:04:08.276Z,38.86
2019-05-15T13:06:47.688Z,40.80
2019-05-15T13:09:13.077Z,39.72
2019-05-15T13:11:44.504Z,39.59
2019-05-15T13:14:15.911Z,39.42
2019-05-15T13:16:48.041Z,38.71
2019-05-15T13:19:19.950Z,38.79
2019-05-15T13:21:51.657Z,39.34
2019-05-15T13:24:23.179Z,37.75
2019-05-15T13:26:54.485Z,37.30
2019-05-15T13:29:28.998Z,37.24
2019-05-15T13:32:00.257Z,37.67
2019-05-15T13:34:31.805Z,36.12
2019-05-15T13:37:03.233Z,36.29
2019-05-15T13:39:34.726Z,36.78
2019-05-15T13:42:06.238Z,35.14
2019-05-15T13:44:38.695Z,36.63
2019-05-15T13:47:10.312Z,36.45
2019-05-15T13:49:41.710Z,35.72
2019-05-15T13:52:13.125Z,36.15
2019-05-15T13:54:48.233Z,34.97
2019-05-15T13:57:19.009Z,35.93
2019-05-15T13:59:50.406Z,35.46
2019-05-15T14:02:21.828Z,36.08
2019-05-15T14:04:54.402Z,35.65
2019-05-15T14:07:25.941Z,36.47
2019-05-15T14:09:59.835Z,36.04
2019-05-15T14:12:30.529Z,36.91
2019-05-15T14:15:02.082Z,35.88
2019-05-15T14:17:33.547Z,35.84
2019-05-15T14:20:08.727Z,36.17
2019-05-15T14:22:39.256Z,36.08
2019-05-15T14:25:10.641Z,36.22
2019-05-15T14:27:42.378Z,36.34
2019-05-15T14:30:13.981Z,36.17
2019-05-15T14:32:48.259Z,36.81
2019-05-15T14:35:18.647Z,36.92
2019-05-15T14:38:02.578Z,36.94
2019-05-15T14:40:23.161Z,37.48
2019-05-15T14:42:59.158Z,37.61
2019-05-15T14:45:29.231Z,37.39
2019-05-15T14:48:00.711Z,37.38
2019-05-15T14:50:33.845Z,37.38
2019-05-15T14:53:06.274Z,37.86
2019-05-15T14:55:43.153Z,38.80
2019-05-15T14:58:12.414Z,39.17
2019-05-15T15:00:43.885Z,40.23
2019-05-15T15:03:18.414Z,40.28
2019-05-15T15:05:50.030Z,40.39
2019-05-15T15:08:24.909Z,40.87
2019-05-15T15:10:54.524Z,40.61
2019-05-15T15:13:28.830Z,42.17
2019-05-15T15:15:59.989Z,41.95
2019-05-15T15:18:31.361Z,42.16
2019-05-15T15:21:02.885Z,42.40
2019-05-15T15:23:34.286Z,42.60
2019-05-15T15:26:05.660Z,42.61
2019-05-15T15:28:37.179Z,43.32
2019-05-15T15:31:08.598Z,43.44
2019-05-15T15:33:40.020Z,42.34
2019-05-15T15:36:11.561Z,42.67
2019-05-15T15:38:44.097Z,42.96
2019-05-15T15:41:18.152Z,42.98
2019-05-15T15:43:52.232Z,43.33
2019-05-15T15:46:22.638Z,43.22
2019-05-15T15:48:54.006Z,43.44
2019-05-15T15:51:25.610Z,42.89
2019-05-15T15:53:56.987Z,42.94
2019-05-15T15:56:29.091Z,43.17
2019-05-15T15:59:01.718Z,43.24
2019-05-15T16:01:33.221Z,43.57
2019-05-15T16:04:04.708Z,43.05
2019-05-15T16:06:38.564Z,44.04
2019-05-15T16:09:18.943Z,43.88
2019-05-15T16:11:50.442Z,43.80
2019-05-15T16:14:21.791Z,43.88
2019-05-15T16:16:53.241Z,44.37
2019-05-15T16:19:24.591Z,42.20
2019-05-15T16:21:59.445Z,42.96
2019-05-15T16:24:31.700Z,42.74
2019-05-15T16:27:03.203Z,42.73
2019-05-15T16:29:34.594Z,43.74
2019-05-15T16:32:08.749Z,44.00
2019-05-15T16:34:40.249Z,43.30
2019-05-15T16:37:11.655Z,42.69
2019-05-15T16:39:44.240Z,43.21
2019-05-15T16:42:18.041Z,43.25
2019-05-15T16:44:50.470Z,43.43
2019-05-15T16:47:27.834Z,43.46
2019-05-15T16:49:58.497Z,43.76
2019-05-15T16:52:31.149Z,44.17
2019-05-15T16:55:03.348Z,44.54
2019-05-15T16:57:38.631Z,45.98
2019-05-15T17:00:11.418Z,46.98
2019-05-15T17:02:42.841Z,48.81
2019-05-15T17:05:15.336Z,49.71
2019-05-15T17:07:48.832Z,49.78
2019-05-15T17:10:20.080Z,50.03
2019-05-15T17:12:51.590Z,50.65
2019-05-15T17:15:23.006Z,51.33
2019-05-15T17:17:54.483Z,51.75
2019-05-15T17:20:28.258Z,52.11
2019-05-15T17:22:59.224Z,52.87
2019-05-15T17:25:30.593Z,53.83
2019-05-15T17:28:02.101Z,54.93
2019-05-15T17:30:33.792Z,55.65
2019-05-15T17:33:05.421Z,56.02
2019-05-15T17:35:38.102Z,57.15
2019-05-15T17:38:11.131Z,58.66
2019-05-15T17:40:43.632Z,57.97
2019-05-15T17:43:17.635Z,59.10
2019-05-15T17:45:48.776Z,59.47
2019-05-15T17:48:20.380Z,59.53
2019-05-15T17:50:52.780Z,60.15
2019-05-15T17:53:24.458Z,60.42
2019-05-15T17:55:58.446Z,61.27
2019-05-15T17:58:30.243Z,61.18
2019-05-15T18:01:03.228Z,62.22
2019-05-15T18:03:39.320Z,61.90
2019-05-15T18:06:10.878Z,61.80
2019-05-15T18:08:43.016Z,61.30
2019-05-15T18:11:14.434Z,61.16
2019-05-15T18:13:45.863Z,62.43
2019-05-15T18:16:18.261Z,62.68
2019-05-15T18:18:49.909Z,62.02
2019-05-15T18:21:21.798Z,62.63
2019-05-15T18:23:53.264Z,62.54
2019-05-15T18:26:24.720Z,63.62
2019-05-15T18:28:58.335Z,63.55
2019-05-15T18:31:30.529Z,63.96
2019-05-15T18:34:02.039Z,65.10
2019-05-15T18:36:35.405Z,64.62
2019-05-15T18:39:10.148Z,64.63
2019-05-15T18:41:41.619Z,65.57
2019-05-15T18:44:13.171Z,66.37
2019-05-15T18:46:44.732Z,65.89
2019-05-15T18:49:17.981Z,65.80
2019-05-15T18:51:49.386Z,65.16
2019-05-15T18:54:20.888Z,65.35
2019-05-15T18:56:52.431Z,65.55
2019-05-15T18:59:24.101Z,65.98
2019-05-15T19:01:55.581Z,66.26
2019-05-15T19:04:28.820Z,65.86
2019-05-15T19:07:00.414Z,66.26
2019-05-15T19:09:31.956Z,65.92
2019-05-15T19:12:03.525Z,66.95
2019-05-15T19:14:39.409Z,67.20
2019-05-15T19:17:09.465Z,67.46
2019-05-15T19:19:40.966Z,67.33
2019-05-15T19:22:12.627Z,67.37
2019-05-15T19:24:44.157Z,68.11
2019-05-15T19:27:18.494Z,67.85
2019-05-15T19:29:50.402Z,67.60
2019-05-15T19:32:22.082Z,68.14
2019-05-15T19:34:56.246Z,67.84
2019-05-15T19:37:29.362Z,67.82
2019-05-15T19:40:01.321Z,68.04
2019-05-15T19:42:34.066Z,67.90
2019-05-15T19:45:08.518Z,68.32
2019-05-15T19:47:40.240Z,68.60
2019-05-15T19:50:13.419Z,68.02
2019-05-15T19:52:59.891Z,68.15
2019-05-15T19:55:34.511Z,68.48
2019-05-15T19:58:05.938Z,68.22
2019-05-15T20:00:38.737Z,69.43
2019-05-15T20:03:10.734Z,69.49
2019-05-15T20:05:43.845Z,69.71
2019-05-15T20:08:15.374Z,68.71
2019-05-15T20:10:47.908Z,68.86
2019-05-15T20:13:21.157Z,70.00
2019-05-15T20:15:52.992Z,70.23
2019-05-15T20:18:27.707Z,70.54
2019-05-15T20:20:58.973Z,69.95
2019-05-15T20:23:31.665Z,70.28
2019-05-15T20:26:03.270Z,70.69
2019-05-15T20:28:34.747Z,71.22
2019-05-15T20:31:07.923Z,70.51
2019-05-15T20:33:39.461Z,70.80
2019-05-15T20:36:11.346Z,71.31
2019-05-15T20:38:43.716Z,71.42
2019-05-15T20:41:15.164Z,72.38
2019-05-15T20:43:48.961Z,72.52
2019-05-15T20:46:19.999Z,72.41
2019-05-15T20:48:51.420Z,71.69
2019-05-15T20:51:22.921Z,71.87
2019-05-15T20:53:54.330Z,71.75
2019-05-15T20:56:28.149Z,72.03
2019-05-15T20:59:01.802Z,72.29
2019-05-15T21:01:33.755Z,72.60
2019-05-15T21:04:18.518Z,72.97
2019-05-15T21:06:38.845Z,73.44
2019-05-15T21:09:10.503Z,74.06
2019-05-15T21:11:42.182Z,73.18
2019-05-15T21:14:13.611Z,73.26
2019-05-15T21:16:45.139Z,74.05
2019-05-15T21:19:18.800Z,73.89
2019-05-15T21:21:49.843Z,72.80
2019-05-15T21:24:21.275Z,73.38
2019-05-15T21:26:52.827Z,74.23
2019-05-15T21:29:24.199Z,73.84
2019-05-15T21:31:58.000Z,74.33
2019-05-15T21:34:36.976Z,74.93
2019-05-15T21:37:05.460Z,74.91
2019-05-15T21:39:39.171Z,75.06
2019-05-15T21:42:10.043Z,75.42
2019-05-15T21:44:41.362Z,75.59
2019-05-15T21:47:12.794Z,75.46
2019-05-15T21:49:44.328Z,75.80
2019-05-15T21:52:18.546Z,75.95
2019-05-15T21:54:50.506Z,76.15
2019-05-15T21:57:32.790Z,75.94
2019-05-15T21:59:55.158Z,76.21
2019-05-15T22:02:29.208Z,76.66
2019-05-15T22:04:59.805Z,76.63
2019-05-15T22:07:31.203Z,76.62
2019-05-15T22:10:02.562Z,76.61
2019-05-15T22:12:34.306Z,76.63
2019-05-15T22:15:09.039Z,76.49
2019-05-15T22:17:40.830Z,77.10
2019-05-15T22:20:13.008Z,77.30
2019-05-15T22:22:44.614Z,77.42
2019-05-15T22:25:18.782Z,77.56
2019-05-15T22:27:49.626Z,77.98
2019-05-15T22:30:23.777Z,78.08
2019-05-15T22:32:55.237Z,78.11
2019-05-15T22:35:29.096Z,78.20
2019-05-15T22:37:59.744Z,78.34
2019-05-15T22:40:31.187Z,78.36
2019-05-15T22:43:02.566Z,78.12
2019-05-15T22:45:34.023Z,78.40
2019-05-15T22:48:05.615Z,77.90
2019-05-15T22:50:38.413Z,77.63
2019-05-15T22:53:09.963Z,77.68
2019-05-15T22:55:41.428Z,78.25
2019-05-15T22:58:13.029Z,79.04
2019-05-15T23:00:48.690Z,79.46
2019-05-15T23:03:19.152Z,79.65
2019-05-15T23:05:50.736Z,79.73
2019-05-15T23:08:22.240Z,79.82
2019-05-15T23:10:54.071Z,79.90
2019-05-15T23:13:25.496Z,80.07
2019-05-15T23:15:58.412Z,79.73
2019-05-15T23:18:30.228Z,79.76
2019-05-15T23:21:02.592Z,80.20
2019-05-15T23:23:34.050Z,80.27
2019-05-15T23:26:05.425Z,80.75
2019-05-15T23:28:38.648Z,80.60
2019-05-15T23:31:10.065Z,80.67
2019-05-15T23:33:41.537Z,80.89
2019-05-15T23:36:12.998Z,80.85
2019-05-15T23:38:44.540Z,80.99
2019-05-15T23:41:15.968Z,81.12
2019-05-15T23:43:48.236Z,81.34
2019-05-15T23:46:19.862Z,81.51
2019-05-15T23:48:52.922Z,81.75
2019-05-15T23:51:24.211Z,81.92
2019-05-15T23:53:55.720Z,81.89
2019-05-15T23:56:29.109Z,82.03
2019-05-15T23:59:00.446Z,82.12
